sensor_id;sensor_type;location;lat;lon;timestamp;temperature;humidity
20204;DHT22;10261;49.010;12.034;2023-01-29T00:00:43;3.40;99.90
20204;DHT22;10261;49.010;12.034;2023-01-29T00:01:45;3.40;99.90
20204;DHT22;10261;49.010;12.034;2023-01-29T00:02:48;3.50;99.90
20204;DHT22;10261;49.010;12.034;2023-01-29T00:03:50;3.50;99.90
20204;DHT22;10261;49.010;12.034;2023-01-29T00:04:53;3.50;99.90
20204;DHT22;10261;49.010;12.034;2023-01-29T00:06:00;3.40;99.90
20204;DHT22;10261;49.010;12.034;2023-01-29T00:07:07;3.40;99.90
20204;DHT22;10261;49.010;12.034;2023-01-29T00:08:10;3.40;99.90
20204;DHT22;10261;49.010;12.034;2023-01-29T00:09:13;3.50;99.90
20204;DHT22;10261;49.010;12.034;2023-01-29T00:10:16;3.40;99.90
20204;DHT22;10261;49.010;12.034;2023-01-29T00:11:19;3.30;99.90
20204;DHT22;10261;49.010;12.034;2023-01-29T00:12:22;3.40;99.90
20204;DHT22;10261;49.010;12.034;2023-01-29T00:13:24;3.50;99.90
20204;DHT22;10261;49.010;12.034;2023-01-29T00:14:26;3.50;99.90
20204;DHT22;10261;49.010;12.034;2023-01-29T00:15:29;3.40;99.90
20204;DHT22;10261;49.010;12.034;2023-01-29T00:16:31;3.40;99.90
20204;DHT22;10261;49.010;12.034;2023-01-29T00:17:34;3.40;99.90
20204;DHT22;10261;49.010;12.034;2023-01-29T00:18:38;3.50;99.90
20204;DHT22;10261;49.010;12.034;2023-01-29T00:19:42;3.40;99.90
20204;DHT22;10261;49.010;12.034;2023-01-29T00:20:44;3.30;99.90
20204;DHT22;10261;49.010;12.034;2023-01-29T00:21:47;3.40;99.90
20204;DHT22;10261;49.010;12.034;2023-01-29T00:22:50;3.50;99.90
20204;DHT22;10261;49.010;12.034;2023-01-29T00:23:53;3.50;99.90
20204;DHT22;10261;49.010;12.034;2023-01-29T00:24:58;3.50;99.90
20204;DHT22;10261;49.010;12.034;2023-01-29T00:26:00;3.50;99.90
20204;DHT22;10261;49.010;12.034;2023-01-29T00:27:03;3.40;99.90
20204;DHT22;10261;49.010;12.034;2023-01-29T00:28:05;3.40;99.90
20204;DHT22;10261;49.010;12.034;2023-01-29T00:29:08;3.30;99.90
20204;DHT22;10261;49.010;12.034;2023-01-29T00:30:11;3.40;99.90
20204;DHT22;10261;49.010;12.034;2023-01-29T00:31:17;3.30;99.90
20204;DHT22;10261;49.010;12.034;2023-01-29T00:32:20;3.30;99.90
20204;DHT22;10261;49.010;12.034;2023-01-29T00:33:22;3.20;99.90
20204;DHT22;10261;49.010;12.034;2023-01-29T00:34:25;3.20;99.90
20204;DHT22;10261;49.010;12.034;2023-01-29T00:35:27;3.20;99.90
20204;DHT22;10261;49.010;12.034;2023-01-29T00:36:30;3.20;99.90
20204;DHT22;10261;49.010;12.034;2023-01-29T00:37:33;3.30;99.90
20204;DHT22;10261;49.010;12.034;2023-01-29T00:38:36;3.30;99.90
20204;DHT22;10261;49.010;12.034;2023-01-29T00:39:39;3.40;99.90
20204;DHT22;10261;49.010;12.034;2023-01-29T00:40:50;3.40;99.90
20204;DHT22;10261;49.010;12.034;2023-01-29T00:42:10;3.40;99.90
20204;DHT22;10261;49.010;12.034;2023-01-29T00:43:30;3.40;99.90
20204;DHT22;10261;49.010;12.034;2023-01-29T00:44:51;3.40;99.90
20204;DHT22;10261;49.010;12.034;2023-01-29T00:46:00;3.40;99.90
20204;DHT22;10261;49.010;12.034;2023-01-29T00:47:02;3.30;99.90
20204;DHT22;10261;49.010;12.034;2023-01-29T00:48:06;3.40;99.90
20204;DHT22;10261;49.010;12.034;2023-01-29T00:49:09;3.40;99.90
20204;DHT22;10261;49.010;12.034;2023-01-29T00:50:11;3.40;99.90
20204;DHT22;10261;49.010;12.034;2023-01-29T00:51:15;3.40;99.90
20204;DHT22;10261;49.010;12.034;2023-01-29T00:52:17;3.40;99.90
20204;DHT22;10261;49.010;12.034;2023-01-29T00:53:26;3.40;99.90
20204;DHT22;10261;49.010;12.034;2023-01-29T00:54:29;3.40;99.90
20204;DHT22;10261;49.010;12.034;2023-01-29T00:55:33;3.40;99.90
20204;DHT22;10261;49.010;12.034;2023-01-29T00:56:37;3.30;99.90
20204;DHT22;10261;49.010;12.034;2023-01-29T00:57:39;3.40;99.90
20204;DHT22;10261;49.010;12.034;2023-01-29T00:58:42;3.30;99.90
20204;DHT22;10261;49.010;12.034;2023-01-29T00:59:44;3.30;99.90
20204;DHT22;10261;49.010;12.034;2023-01-29T01:00:48;3.30;99.90
20204;DHT22;10261;49.010;12.034;2023-01-29T01:01:50;3.30;99.90
20204;DHT22;10261;49.010;12.034;2023-01-29T01:03:10;3.30;99.90
20204;DHT22;10261;49.010;12.034;2023-01-29T01:04:13;3.30;99.90
20204;DHT22;10261;49.010;12.034;2023-01-29T01:05:16;3.40;99.90
20204;DHT22;10261;49.010;12.034;2023-01-29T01:06:19;3.40;99.90
20204;DHT22;10261;49.010;12.034;2023-01-29T01:07:21;3.40;99.90
20204;DHT22;10261;49.010;12.034;2023-01-29T01:08:24;3.40;99.90
20204;DHT22;10261;49.010;12.034;2023-01-29T01:09:44;3.40;99.90
20204;DHT22;10261;49.010;12.034;2023-01-29T01:11:05;3.30;99.90
20204;DHT22;10261;49.010;12.034;2023-01-29T01:12:09;3.30;99.90
20204;DHT22;10261;49.010;12.034;2023-01-29T01:13:11;3.30;99.90
20204;DHT22;10261;49.010;12.034;2023-01-29T01:14:14;3.30;99.90
20204;DHT22;10261;49.010;12.034;2023-01-29T01:15:17;3.30;99.90
20204;DHT22;10261;49.010;12.034;2023-01-29T01:16:20;3.30;99.90
20204;DHT22;10261;49.010;12.034;2023-01-29T01:17:22;3.30;99.90
20204;DHT22;10261;49.010;12.034;2023-01-29T01:18:30;3.30;99.90
20204;DHT22;10261;49.010;12.034;2023-01-29T01:19:32;3.30;99.90
20204;DHT22;10261;49.010;12.034;2023-01-29T01:20:35;3.30;99.90
20204;DHT22;10261;49.010;12.034;2023-01-29T01:21:37;3.30;99.90
20204;DHT22;10261;49.010;12.034;2023-01-29T01:22:40;3.20;99.90
20204;DHT22;10261;49.010;12.034;2023-01-29T01:23:42;3.30;99.90
20204;DHT22;10261;49.010;12.034;2023-01-29T01:24:45;3.30;99.90
20204;DHT22;10261;49.010;12.034;2023-01-29T01:25:47;3.30;99.90
20204;DHT22;10261;49.010;12.034;2023-01-29T01:26:50;3.30;99.90
20204;DHT22;10261;49.010;12.034;2023-01-29T01:27:54;3.30;99.90
20204;DHT22;10261;49.010;12.034;2023-01-29T01:28:57;3.40;99.90
20204;DHT22;10261;49.010;12.034;2023-01-29T01:30:00;3.30;99.90
20204;DHT22;10261;49.010;12.034;2023-01-29T01:31:08;3.30;99.90
20204;DHT22;10261;49.010;12.034;2023-01-29T01:32:10;3.20;99.90
20204;DHT22;10261;49.010;12.034;2023-01-29T01:33:13;3.20;99.90
20204;DHT22;10261;49.010;12.034;2023-01-29T01:34:15;3.10;99.90
20204;DHT22;10261;49.010;12.034;2023-01-29T01:35:18;3.10;99.90
20204;DHT22;10261;49.010;12.034;2023-01-29T01:36:20;3.20;99.90
20204;DHT22;10261;49.010;12.034;2023-01-29T01:37:23;3.10;99.90
20204;DHT22;10261;49.010;12.034;2023-01-29T01:38:25;3.20;99.90
20204;DHT22;10261;49.010;12.034;2023-01-29T01:39:28;3.20;99.90
20204;DHT22;10261;49.010;12.034;2023-01-29T01:40:30;3.10;99.90
20204;DHT22;10261;49.010;12.034;2023-01-29T01:41:33;3.20;99.90
20204;DHT22;10261;49.010;12.034;2023-01-29T01:42:35;3.20;99.90
20204;DHT22;10261;49.010;12.034;2023-01-29T01:43:51;3.20;99.90
20204;DHT22;10261;49.010;12.034;2023-01-29T01:44:57;3.20;99.90
20204;DHT22;10261;49.010;12.034;2023-01-29T01:46:01;3.20;99.90
20204;DHT22;10261;49.010;12.034;2023-01-29T01:47:03;3.20;99.90
20204;DHT22;10261;49.010;12.034;2023-01-29T01:48:10;3.20;99.90
20204;DHT22;10261;49.010;12.034;2023-01-29T01:49:17;3.30;99.90
20204;DHT22;10261;49.010;12.034;2023-01-29T01:50:23;3.20;99.90
20204;DHT22;10261;49.010;12.034;2023-01-29T01:51:30;3.20;99.90
20204;DHT22;10261;49.010;12.034;2023-01-29T01:52:35;3.30;99.90
20204;DHT22;10261;49.010;12.034;2023-01-29T01:53:42;3.20;99.90
20204;DHT22;10261;49.010;12.034;2023-01-29T01:54:46;3.20;99.90
20204;DHT22;10261;49.010;12.034;2023-01-29T01:55:52;3.20;99.90
20204;DHT22;10261;49.010;12.034;2023-01-29T01:57:00;3.20;99.90
20204;DHT22;10261;49.010;12.034;2023-01-29T01:58:13;3.20;99.90
20204;DHT22;10261;49.010;12.034;2023-01-29T01:59:20;3.20;99.90
20204;DHT22;10261;49.010;12.034;2023-01-29T02:00:25;3.20;99.90
20204;DHT22;10261;49.010;12.034;2023-01-29T02:01:28;3.10;99.90
20204;DHT22;10261;49.010;12.034;2023-01-29T02:02:30;3.10;99.90
20204;DHT22;10261;49.010;12.034;2023-01-29T02:03:54;3.20;99.90
20204;DHT22;10261;49.010;12.034;2023-01-29T02:05:16;3.10;99.90
20204;DHT22;10261;49.010;12.034;2023-01-29T02:06:39;3.10;99.90
20204;DHT22;10261;49.010;12.034;2023-01-29T02:07:59;3.20;99.90
20204;DHT22;10261;49.010;12.034;2023-01-29T02:09:23;3.20;99.90
20204;DHT22;10261;49.010;12.034;2023-01-29T02:10:37;3.30;99.90
20204;DHT22;10261;49.010;12.034;2023-01-29T02:11:40;3.20;99.90
20204;DHT22;10261;49.010;12.034;2023-01-29T02:12:44;3.20;99.90
20204;DHT22;10261;49.010;12.034;2023-01-29T02:13:46;3.20;99.90
20204;DHT22;10261;49.010;12.034;2023-01-29T02:14:56;3.20;99.90
20204;DHT22;10261;49.010;12.034;2023-01-29T02:15:58;3.20;99.90
20204;DHT22;10261;49.010;12.034;2023-01-29T02:17:01;3.10;99.90
20204;DHT22;10261;49.010;12.034;2023-01-29T02:18:03;3.20;99.90
20204;DHT22;10261;49.010;12.034;2023-01-29T02:19:12;3.20;99.90
20204;DHT22;10261;49.010;12.034;2023-01-29T02:20:18;3.20;99.90
20204;DHT22;10261;49.010;12.034;2023-01-29T02:21:48;3.20;99.90
20204;DHT22;10261;49.010;12.034;2023-01-29T02:23:13;3.10;99.90
20204;DHT22;10261;49.010;12.034;2023-01-29T02:24:43;3.10;99.90
20204;DHT22;10261;49.010;12.034;2023-01-29T02:26:14;3.20;99.90
20204;DHT22;10261;49.010;12.034;2023-01-29T02:27:27;3.10;99.90
20204;DHT22;10261;49.010;12.034;2023-01-29T02:28:38;3.20;99.90
20204;DHT22;10261;49.010;12.034;2023-01-29T02:29:53;3.20;99.90
20204;DHT22;10261;49.010;12.034;2023-01-29T02:31:04;3.30;99.90
20204;DHT22;10261;49.010;12.034;2023-01-29T02:32:15;3.30;99.90
20204;DHT22;10261;49.010;12.034;2023-01-29T02:33:28;3.20;99.90
20204;DHT22;10261;49.010;12.034;2023-01-29T02:34:37;3.20;99.90
20204;DHT22;10261;49.010;12.034;2023-01-29T02:36:07;3.20;99.90
20204;DHT22;10261;49.010;12.034;2023-01-29T02:37:14;3.10;99.90
20204;DHT22;10261;49.010;12.034;2023-01-29T02:38:21;3.10;99.90
20204;DHT22;10261;49.010;12.034;2023-01-29T02:39:30;3.20;99.90
20204;DHT22;10261;49.010;12.034;2023-01-29T02:40:40;3.20;99.90
20204;DHT22;10261;49.010;12.034;2023-01-29T02:41:57;3.10;99.90
20204;DHT22;10261;49.010;12.034;2023-01-29T02:43:06;3.10;99.90
20204;DHT22;10261;49.010;12.034;2023-01-29T02:44:20;3.10;99.90
20204;DHT22;10261;49.010;12.034;2023-01-29T02:45:30;3.10;99.90
20204;DHT22;10261;49.010;12.034;2023-01-29T02:46:36;3.10;99.90
20204;DHT22;10261;49.010;12.034;2023-01-29T02:47:45;3.10;99.90
20204;DHT22;10261;49.010;12.034;2023-01-29T02:48:54;3.10;99.90
20204;DHT22;10261;49.010;12.034;2023-01-29T02:50:05;3.10;99.90
20204;DHT22;10261;49.010;12.034;2023-01-29T02:51:15;3.10;99.90
20204;DHT22;10261;49.010;12.034;2023-01-29T02:52:24;3.10;99.90
20204;DHT22;10261;49.010;12.034;2023-01-29T02:53:32;3.10;99.90
20204;DHT22;10261;49.010;12.034;2023-01-29T02:54:42;3.30;99.90
20204;DHT22;10261;49.010;12.034;2023-01-29T02:55:50;3.30;99.90
20204;DHT22;10261;49.010;12.034;2023-01-29T02:56:57;3.30;99.90
20204;DHT22;10261;49.010;12.034;2023-01-29T02:58:06;3.20;99.90
20204;DHT22;10261;49.010;12.034;2023-01-29T02:59:18;3.10;99.90
20204;DHT22;10261;49.010;12.034;2023-01-29T03:00:24;2.30;99.90
20204;DHT22;10261;49.010;12.034;2023-01-29T03:01:29;3.10;99.90
20204;DHT22;10261;49.010;12.034;2023-01-29T03:02:37;3.20;99.90
20204;DHT22;10261;49.010;12.034;2023-01-29T03:03:44;3.10;99.90
20204;DHT22;10261;49.010;12.034;2023-01-29T03:04:54;3.10;99.90
20204;DHT22;10261;49.010;12.034;2023-01-29T03:06:01;3.10;99.90
20204;DHT22;10261;49.010;12.034;2023-01-29T03:07:09;3.10;99.90
20204;DHT22;10261;49.010;12.034;2023-01-29T03:08:39;3.10;99.90
20204;DHT22;10261;49.010;12.034;2023-01-29T03:09:48;3.20;99.90
20204;DHT22;10261;49.010;12.034;2023-01-29T03:10:55;3.20;99.90
20204;DHT22;10261;49.010;12.034;2023-01-29T03:12:04;2.70;99.90
20204;DHT22;10261;49.010;12.034;2023-01-29T03:13:25;3.20;99.90
20204;DHT22;10261;49.010;12.034;2023-01-29T03:14:36;3.20;99.90
20204;DHT22;10261;49.010;12.034;2023-01-29T03:16:00;3.20;99.90
20204;DHT22;10261;49.010;12.034;2023-01-29T03:17:05;3.20;99.90
20204;DHT22;10261;49.010;12.034;2023-01-29T03:18:11;3.20;99.90
20204;DHT22;10261;49.010;12.034;2023-01-29T03:19:18;3.10;99.90
20204;DHT22;10261;49.010;12.034;2023-01-29T03:20:23;3.20;99.90
20204;DHT22;10261;49.010;12.034;2023-01-29T03:21:33;3.20;99.90
20204;DHT22;10261;49.010;12.034;2023-01-29T03:22:57;3.20;99.90
20204;DHT22;10261;49.010;12.034;2023-01-29T03:24:03;3.20;99.90
20204;DHT22;10261;49.010;12.034;2023-01-29T03:25:27;3.20;99.90
20204;DHT22;10261;49.010;12.034;2023-01-29T03:26:47;3.10;99.90
20204;DHT22;10261;49.010;12.034;2023-01-29T03:28:09;3.10;99.90
20204;DHT22;10261;49.010;12.034;2023-01-29T03:29:34;3.20;99.90
20204;DHT22;10261;49.010;12.034;2023-01-29T03:30:57;3.10;99.90
20204;DHT22;10261;49.010;12.034;2023-01-29T03:32:20;3.20;99.90
20204;DHT22;10261;49.010;12.034;2023-01-29T03:33:31;3.20;99.90
20204;DHT22;10261;49.010;12.034;2023-01-29T03:34:39;3.10;99.90
20204;DHT22;10261;49.010;12.034;2023-01-29T03:35:48;3.10;99.90
20204;DHT22;10261;49.010;12.034;2023-01-29T03:36:54;3.20;99.90
20204;DHT22;10261;49.010;12.034;2023-01-29T03:37:59;3.30;99.90
20204;DHT22;10261;49.010;12.034;2023-01-29T03:39:03;3.30;99.90
20204;DHT22;10261;49.010;12.034;2023-01-29T03:40:09;3.20;99.90
20204;DHT22;10261;49.010;12.034;2023-01-29T03:41:22;3.20;99.90
20204;DHT22;10261;49.010;12.034;2023-01-29T03:42:28;3.10;99.90
20204;DHT22;10261;49.010;12.034;2023-01-29T03:43:40;3.20;99.90
20204;DHT22;10261;49.010;12.034;2023-01-29T03:44:53;3.20;99.90
20204;DHT22;10261;49.010;12.034;2023-01-29T03:46:03;3.10;99.90
20204;DHT22;10261;49.010;12.034;2023-01-29T03:47:15;3.20;99.90
20204;DHT22;10261;49.010;12.034;2023-01-29T03:48:27;3.30;99.90
20204;DHT22;10261;49.010;12.034;2023-01-29T03:49:43;3.20;99.90
20204;DHT22;10261;49.010;12.034;2023-01-29T03:50:55;3.20;99.90
20204;DHT22;10261;49.010;12.034;2023-01-29T03:52:01;3.10;99.90
20204;DHT22;10261;49.010;12.034;2023-01-29T03:53:10;3.10;99.90
20204;DHT22;10261;49.010;12.034;2023-01-29T03:54:20;3.10;99.90
20204;DHT22;10261;49.010;12.034;2023-01-29T03:55:34;3.20;99.90
20204;DHT22;10261;49.010;12.034;2023-01-29T03:56:46;3.10;99.90
20204;DHT22;10261;49.010;12.034;2023-01-29T03:57:56;3.20;99.90
20204;DHT22;10261;49.010;12.034;2023-01-29T03:59:03;3.20;99.90
20204;DHT22;10261;49.010;12.034;2023-01-29T04:00:13;3.10;99.90
20204;DHT22;10261;49.010;12.034;2023-01-29T04:01:19;3.10;99.90
20204;DHT22;10261;49.010;12.034;2023-01-29T04:02:24;3.10;99.90
20204;DHT22;10261;49.010;12.034;2023-01-29T04:03:33;3.20;99.90
20204;DHT22;10261;49.010;12.034;2023-01-29T04:04:37;3.20;99.90
20204;DHT22;10261;49.010;12.034;2023-01-29T04:05:42;3.10;99.90
20204;DHT22;10261;49.010;12.034;2023-01-29T04:06:49;3.10;99.90
20204;DHT22;10261;49.010;12.034;2023-01-29T04:07:59;3.30;99.90
20204;DHT22;10261;49.010;12.034;2023-01-29T04:09:06;3.30;99.90
20204;DHT22;10261;49.010;12.034;2023-01-29T04:10:13;3.20;99.90
20204;DHT22;10261;49.010;12.034;2023-01-29T04:11:20;3.10;99.90
20204;DHT22;10261;49.010;12.034;2023-01-29T04:12:25;3.10;99.90
20204;DHT22;10261;49.010;12.034;2023-01-29T04:13:30;3.10;99.90
20204;DHT22;10261;49.010;12.034;2023-01-29T04:14:36;3.10;99.90
20204;DHT22;10261;49.010;12.034;2023-01-29T04:15:44;3.10;99.90
20204;DHT22;10261;49.010;12.034;2023-01-29T04:16:51;3.10;99.90
20204;DHT22;10261;49.010;12.034;2023-01-29T04:17:55;3.10;99.90
20204;DHT22;10261;49.010;12.034;2023-01-29T04:18:59;3.20;99.90
20204;DHT22;10261;49.010;12.034;2023-01-29T04:20:02;3.20;99.90
20204;DHT22;10261;49.010;12.034;2023-01-29T04:21:05;3.20;99.90
20204;DHT22;10261;49.010;12.034;2023-01-29T04:22:12;3.10;99.90
20204;DHT22;10261;49.010;12.034;2023-01-29T04:23:21;3.20;99.90
20204;DHT22;10261;49.010;12.034;2023-01-29T04:24:24;3.20;99.90
20204;DHT22;10261;49.010;12.034;2023-01-29T04:25:30;3.30;99.90
20204;DHT22;10261;49.010;12.034;2023-01-29T04:26:50;3.30;99.90
20204;DHT22;10261;49.010;12.034;2023-01-29T04:28:03;3.40;99.90
20204;DHT22;10261;49.010;12.034;2023-01-29T04:29:24;3.30;99.90
20204;DHT22;10261;49.010;12.034;2023-01-29T04:30:40;3.30;99.90
20204;DHT22;10261;49.010;12.034;2023-01-29T04:31:51;3.30;99.90
20204;DHT22;10261;49.010;12.034;2023-01-29T04:33:05;3.30;99.90
20204;DHT22;10261;49.010;12.034;2023-01-29T04:34:20;3.40;99.90
20204;DHT22;10261;49.010;12.034;2023-01-29T04:35:29;3.40;99.90
20204;DHT22;10261;49.010;12.034;2023-01-29T04:36:37;3.50;99.90
20204;DHT22;10261;49.010;12.034;2023-01-29T04:37:43;3.50;99.90
20204;DHT22;10261;49.010;12.034;2023-01-29T04:38:58;3.60;99.90
20204;DHT22;10261;49.010;12.034;2023-01-29T04:40:16;3.50;99.90
20204;DHT22;10261;49.010;12.034;2023-01-29T04:41:23;3.50;99.90
20204;DHT22;10261;49.010;12.034;2023-01-29T04:42:30;3.50;99.90
20204;DHT22;10261;49.010;12.034;2023-01-29T04:43:41;3.50;99.90
20204;DHT22;10261;49.010;12.034;2023-01-29T04:44:50;3.50;99.90
20204;DHT22;10261;49.010;12.034;2023-01-29T04:46:09;3.40;99.90
20204;DHT22;10261;49.010;12.034;2023-01-29T04:47:18;3.50;99.90
20204;DHT22;10261;49.010;12.034;2023-01-29T04:48:25;3.50;99.90
20204;DHT22;10261;49.010;12.034;2023-01-29T04:49:34;3.50;99.90
20204;DHT22;10261;49.010;12.034;2023-01-29T04:50:40;3.40;99.90
20204;DHT22;10261;49.010;12.034;2023-01-29T04:51:50;3.40;99.90
20204;DHT22;10261;49.010;12.034;2023-01-29T04:52:59;3.40;99.90
20204;DHT22;10261;49.010;12.034;2023-01-29T04:54:08;3.40;99.90
20204;DHT22;10261;49.010;12.034;2023-01-29T04:55:19;3.50;99.90
20204;DHT22;10261;49.010;12.034;2023-01-29T04:56:29;3.40;99.90
20204;DHT22;10261;49.010;12.034;2023-01-29T04:57:42;3.40;99.90
20204;DHT22;10261;49.010;12.034;2023-01-29T04:58:50;3.40;99.90
20204;DHT22;10261;49.010;12.034;2023-01-29T04:59:57;3.50;99.90
20204;DHT22;10261;49.010;12.034;2023-01-29T05:01:05;3.40;99.90
20204;DHT22;10261;49.010;12.034;2023-01-29T05:02:09;3.50;99.90
20204;DHT22;10261;49.010;12.034;2023-01-29T05:03:13;3.40;99.90
20204;DHT22;10261;49.010;12.034;2023-01-29T05:04:18;3.40;99.90
20204;DHT22;10261;49.010;12.034;2023-01-29T05:05:21;3.50;99.90
20204;DHT22;10261;49.010;12.034;2023-01-29T05:06:24;3.50;99.90
20204;DHT22;10261;49.010;12.034;2023-01-29T05:07:28;3.40;99.90
20204;DHT22;10261;49.010;12.034;2023-01-29T05:08:33;3.40;99.90
20204;DHT22;10261;49.010;12.034;2023-01-29T05:09:38;3.30;99.90
20204;DHT22;10261;49.010;12.034;2023-01-29T05:10:41;3.40;99.90
20204;DHT22;10261;49.010;12.034;2023-01-29T05:11:44;3.30;99.90
20204;DHT22;10261;49.010;12.034;2023-01-29T05:12:53;3.30;99.90
20204;DHT22;10261;49.010;12.034;2023-01-29T05:13:57;3.30;99.90
20204;DHT22;10261;49.010;12.034;2023-01-29T05:15:02;3.30;99.90
20204;DHT22;10261;49.010;12.034;2023-01-29T05:16:11;3.30;99.90
20204;DHT22;10261;49.010;12.034;2023-01-29T05:17:18;3.30;99.90
20204;DHT22;10261;49.010;12.034;2023-01-29T05:18:22;3.30;99.90
20204;DHT22;10261;49.010;12.034;2023-01-29T05:19:24;3.20;99.90
20204;DHT22;10261;49.010;12.034;2023-01-29T05:20:30;3.20;99.90
20204;DHT22;10261;49.010;12.034;2023-01-29T05:21:32;3.20;99.90
20204;DHT22;10261;49.010;12.034;2023-01-29T05:22:36;3.10;99.90
20204;DHT22;10261;49.010;12.034;2023-01-29T05:23:40;3.10;99.90
20204;DHT22;10261;49.010;12.034;2023-01-29T05:24:53;3.10;99.90
20204;DHT22;10261;49.010;12.034;2023-01-29T05:25:56;3.00;99.90
20204;DHT22;10261;49.010;12.034;2023-01-29T05:26:59;3.00;99.90
20204;DHT22;10261;49.010;12.034;2023-01-29T05:28:19;3.10;99.90
20204;DHT22;10261;49.010;12.034;2023-01-29T05:29:21;3.20;99.90
20204;DHT22;10261;49.010;12.034;2023-01-29T05:30:23;3.30;99.90
20204;DHT22;10261;49.010;12.034;2023-01-29T05:31:27;3.30;99.90
20204;DHT22;10261;49.010;12.034;2023-01-29T05:32:30;3.30;99.90
20204;DHT22;10261;49.010;12.034;2023-01-29T05:33:32;3.30;99.90
20204;DHT22;10261;49.010;12.034;2023-01-29T05:34:36;3.40;99.90
20204;DHT22;10261;49.010;12.034;2023-01-29T05:35:38;3.40;99.90
20204;DHT22;10261;49.010;12.034;2023-01-29T05:36:41;3.30;99.90
20204;DHT22;10261;49.010;12.034;2023-01-29T05:37:43;3.30;99.90
20204;DHT22;10261;49.010;12.034;2023-01-29T05:38:46;3.40;99.90
20204;DHT22;10261;49.010;12.034;2023-01-29T05:39:48;3.30;99.90
20204;DHT22;10261;49.010;12.034;2023-01-29T05:40:51;3.20;99.90
20204;DHT22;10261;49.010;12.034;2023-01-29T05:41:55;3.20;99.90
20204;DHT22;10261;49.010;12.034;2023-01-29T05:42:57;3.20;99.90
20204;DHT22;10261;49.010;12.034;2023-01-29T05:43:59;3.30;99.90
20204;DHT22;10261;49.010;12.034;2023-01-29T05:45:01;3.30;99.90
20204;DHT22;10261;49.010;12.034;2023-01-29T05:46:04;3.30;99.90
20204;DHT22;10261;49.010;12.034;2023-01-29T05:47:09;3.30;99.90
20204;DHT22;10261;49.010;12.034;2023-01-29T05:48:12;3.30;99.90
20204;DHT22;10261;49.010;12.034;2023-01-29T05:49:15;3.20;99.90
20204;DHT22;10261;49.010;12.034;2023-01-29T05:50:18;3.10;99.90
20204;DHT22;10261;49.010;12.034;2023-01-29T05:51:20;3.20;99.90
20204;DHT22;10261;49.010;12.034;2023-01-29T05:52:23;3.20;99.90
20204;DHT22;10261;49.010;12.034;2023-01-29T05:53:26;3.20;99.90
20204;DHT22;10261;49.010;12.034;2023-01-29T05:54:29;3.20;99.90
20204;DHT22;10261;49.010;12.034;2023-01-29T05:55:31;3.20;99.90
20204;DHT22;10261;49.010;12.034;2023-01-29T05:56:34;3.20;99.90
20204;DHT22;10261;49.010;12.034;2023-01-29T05:57:38;3.20;99.90
20204;DHT22;10261;49.010;12.034;2023-01-29T05:58:41;3.20;99.90
20204;DHT22;10261;49.010;12.034;2023-01-29T05:59:43;3.20;99.90
20204;DHT22;10261;49.010;12.034;2023-01-29T06:00:46;3.20;99.90
20204;DHT22;10261;49.010;12.034;2023-01-29T06:01:48;3.20;99.90
20204;DHT22;10261;49.010;12.034;2023-01-29T06:02:52;3.20;99.90
20204;DHT22;10261;49.010;12.034;2023-01-29T06:03:54;3.10;99.90
20204;DHT22;10261;49.010;12.034;2023-01-29T06:04:57;3.10;99.90
20204;DHT22;10261;49.010;12.034;2023-01-29T06:06:00;3.10;99.90
20204;DHT22;10261;49.010;12.034;2023-01-29T06:07:03;3.10;99.90
20204;DHT22;10261;49.010;12.034;2023-01-29T06:08:07;3.10;99.90
20204;DHT22;10261;49.010;12.034;2023-01-29T06:09:10;3.10;99.90
20204;DHT22;10261;49.010;12.034;2023-01-29T06:10:14;3.00;99.90
20204;DHT22;10261;49.010;12.034;2023-01-29T06:11:18;2.90;99.90
20204;DHT22;10261;49.010;12.034;2023-01-29T06:12:21;2.90;99.90
20204;DHT22;10261;49.010;12.034;2023-01-29T06:13:24;2.90;99.90
20204;DHT22;10261;49.010;12.034;2023-01-29T06:14:26;2.90;99.90
20204;DHT22;10261;49.010;12.034;2023-01-29T06:15:29;3.00;99.90
20204;DHT22;10261;49.010;12.034;2023-01-29T06:16:31;3.00;99.90
20204;DHT22;10261;49.010;12.034;2023-01-29T06:17:34;3.00;99.90
20204;DHT22;10261;49.010;12.034;2023-01-29T06:18:38;3.10;99.90
20204;DHT22;10261;49.010;12.034;2023-01-29T06:19:41;3.10;99.90
20204;DHT22;10261;49.010;12.034;2023-01-29T06:20:43;4.30;99.90
20204;DHT22;10261;49.010;12.034;2023-01-29T06:21:46;3.20;99.90
20204;DHT22;10261;49.010;12.034;2023-01-29T06:22:48;3.10;99.90
20204;DHT22;10261;49.010;12.034;2023-01-29T06:23:51;3.10;99.90
20204;DHT22;10261;49.010;12.034;2023-01-29T06:24:54;3.10;99.90
20204;DHT22;10261;49.010;12.034;2023-01-29T06:25:58;3.20;99.90
20204;DHT22;10261;49.010;12.034;2023-01-29T06:27:02;3.20;99.90
20204;DHT22;10261;49.010;12.034;2023-01-29T06:28:05;3.10;99.90
20204;DHT22;10261;49.010;12.034;2023-01-29T06:29:07;3.10;99.90
20204;DHT22;10261;49.010;12.034;2023-01-29T06:30:11;3.00;99.90
20204;DHT22;10261;49.010;12.034;2023-01-29T06:31:13;3.00;99.90
20204;DHT22;10261;49.010;12.034;2023-01-29T06:32:36;2.90;99.90
20204;DHT22;10261;49.010;12.034;2023-01-29T06:33:39;2.90;99.90
20204;DHT22;10261;49.010;12.034;2023-01-29T06:34:42;2.90;99.90
20204;DHT22;10261;49.010;12.034;2023-01-29T06:35:44;3.00;99.90
20204;DHT22;10261;49.010;12.034;2023-01-29T06:36:47;3.00;99.90
20204;DHT22;10261;49.010;12.034;2023-01-29T06:37:50;2.90;99.90
20204;DHT22;10261;49.010;12.034;2023-01-29T06:38:52;2.90;99.90
20204;DHT22;10261;49.010;12.034;2023-01-29T06:39:55;3.00;99.90
20204;DHT22;10261;49.010;12.034;2023-01-29T06:40:57;3.00;99.90
20204;DHT22;10261;49.010;12.034;2023-01-29T06:42:00;3.00;99.90
20204;DHT22;10261;49.010;12.034;2023-01-29T06:43:02;3.10;99.90
20204;DHT22;10261;49.010;12.034;2023-01-29T06:44:05;3.10;99.90
20204;DHT22;10261;49.010;12.034;2023-01-29T06:45:08;3.10;99.90
20204;DHT22;10261;49.010;12.034;2023-01-29T06:46:11;3.00;99.90
20204;DHT22;10261;49.010;12.034;2023-01-29T06:47:13;2.90;99.90
20204;DHT22;10261;49.010;12.034;2023-01-29T06:48:16;2.90;99.90
20204;DHT22;10261;49.010;12.034;2023-01-29T06:49:19;2.80;99.90
20204;DHT22;10261;49.010;12.034;2023-01-29T06:50:22;2.80;99.90
20204;DHT22;10261;49.010;12.034;2023-01-29T06:51:24;2.90;99.90
20204;DHT22;10261;49.010;12.034;2023-01-29T06:52:27;3.00;99.90
20204;DHT22;10261;49.010;12.034;2023-01-29T06:53:30;2.90;99.90
20204;DHT22;10261;49.010;12.034;2023-01-29T06:54:34;2.80;99.90
20204;DHT22;10261;49.010;12.034;2023-01-29T06:55:36;2.90;99.90
20204;DHT22;10261;49.010;12.034;2023-01-29T06:56:39;2.90;99.90
20204;DHT22;10261;49.010;12.034;2023-01-29T06:57:41;2.90;99.90
20204;DHT22;10261;49.010;12.034;2023-01-29T06:58:44;2.90;99.90
20204;DHT22;10261;49.010;12.034;2023-01-29T06:59:47;3.00;99.90
20204;DHT22;10261;49.010;12.034;2023-01-29T07:00:49;3.10;99.90
20204;DHT22;10261;49.010;12.034;2023-01-29T07:01:52;3.10;99.90